aviador You're here:

KIXD Decoded Metar

OLATHE/INDUSTRIA in KS, USA
Report Time2017-11-18 13:53:00
UTC Time2017-11-18 14:11:18
Flight Rules mvfr MVFR
Wind340° at 24 Gusting to 37 kt
W.Decomp.*RWY 36: 21.9 kt HW 9.8 kt LCW
RWY 04: 10.5 kt HW 21.6 kt LCW
W.Rank340° ranks 12
Current wind is above 340° avg. (10.1)
Visibility9999 m
Phenomena:Light Rain
Clouds:Overcast 019 Hf
Expected CloudBase > 800 ft AGL from Temp-Dew spread
Ceiling1,900 ft
Temp07°C (ISA -6)
Dew Point05°C (87% RH)
AAT-2.8°C
QNH1005 hPa
Density Alt823 ft
Elevation1,122 ft
Report Wrong Elevation
Raw Report
KIXD 181353Z 34024G37KT 10SM -RA OVC019 07/05 A2968 RMK AO2 PK WND
33037/1345 RAB1257 SLP048 P0000 T00670050=

Extra information for KIXD:More info

Metar Taf Metar & Taf Last 4 Metars F.Rules Stats Wind Profile Meteogram Temp Stats Airport Information Weather charts Add Link Nearby VenuesMetar ALERT Operation Metar Decoded Social comments

AIRNAV info for KIXD